createdAt,value
2022-09-23T00:01:07.577Z,101617.28
2022-09-23T00:03:37.067Z,101615.34
2022-09-23T00:06:12.525Z,101624.88
2022-09-23T00:08:40.204Z,101620.44
2022-09-23T00:11:12.930Z,101621.72
2022-09-23T00:13:41.070Z,101609.94
2022-09-23T00:16:10.846Z,101618.63
2022-09-23T00:18:37.353Z,101612.91
2022-09-23T00:21:10.102Z,101610.50
2022-09-23T00:23:37.823Z,101611.47
2022-09-23T00:26:06.279Z,101605.09
2022-09-23T00:28:33.337Z,101607.19
2022-09-23T00:31:05.527Z,101600.31
2022-09-23T00:33:32.614Z,101611.75
2022-09-23T00:36:00.816Z,101604.44
2022-09-23T00:38:28.038Z,101604.13
2022-09-23T00:40:54.559Z,101598.09
2022-09-23T00:43:37.855Z,101596.16
2022-09-23T00:46:06.638Z,101593.47
2022-09-23T00:48:33.315Z,101592.97
2022-09-23T00:51:00.218Z,101593.47
2022-09-23T00:53:27.802Z,101589.47
2022-09-23T00:56:00.631Z,101592.00
2022-09-23T00:58:32.567Z,101581.81
2022-09-23T01:01:00.581Z,101584.38
2022-09-23T01:03:28.071Z,101580.38
2022-09-23T01:05:56.026Z,101575.94
2022-09-23T01:08:24.491Z,101577.19
2022-09-23T01:11:01.070Z,101571.16
2022-09-23T01:13:55.705Z,101567.63
2022-09-23T01:16:28.337Z,101572.09
2022-09-23T01:19:10.287Z,101566.84
2022-09-23T01:22:09.194Z,101564.94
2022-09-23T01:24:54.187Z,101548.72
2022-09-23T01:27:32.777Z,101544.59
2022-09-23T01:30:36.161Z,101548.88
2022-09-23T01:37:09.563Z,101535.19
2022-09-23T01:39:52.719Z,101536.91
2022-09-23T01:42:29.634Z,101531.19
2022-09-23T01:45:03.031Z,101531.34
2022-09-23T01:48:34.499Z,101528.50
2022-09-23T01:51:10.554Z,101535.94
2022-09-23T01:53:56.469Z,101526.56
2022-09-23T01:56:31.076Z,101538.00
2022-09-23T01:59:06.034Z,101530.22
2022-09-23T02:01:42.755Z,101524.97
2022-09-23T02:04:17.425Z,101528.66
2022-09-23T02:06:51.087Z,101524.97
2022-09-23T02:09:24.953Z,101527.03
2022-09-23T02:12:00.570Z,101525.44
2022-09-23T02:14:36.222Z,101506.38
2022-09-23T02:17:09.590Z,101518.16
2022-09-23T02:19:50.047Z,101518.63
2022-09-23T02:22:34.510Z,101513.38
2022-09-23T02:25:01.016Z,101506.22
2022-09-23T02:27:39.466Z,101502.56
2022-09-23T02:30:15.489Z,101505.75
2022-09-23T02:33:08.224Z,101495.09
2022-09-23T02:35:53.916Z,101500.81
2022-09-23T02:38:23.358Z,101488.59
2022-09-23T02:41:10.423Z,101485.75
2022-09-23T02:43:49.394Z,101485.44
2022-09-23T02:46:16.693Z,101487.81
2022-09-23T02:48:50.343Z,101484.50
2022-09-23T02:51:16.953Z,101483.19
2022-09-23T02:53:44.291Z,101474.63
2022-09-23T02:56:17.283Z,101477.97
2022-09-23T02:58:44.052Z,101470.22
2022-09-23T03:01:11.030Z,101476.25
2022-09-23T03:04:06.806Z,101465.75
2022-09-23T03:06:54.485Z,101474.16
2022-09-23T03:09:38.471Z,101459.09
2022-09-23T03:12:21.583Z,101458.78
2022-09-23T03:15:03.528Z,101457.50
2022-09-23T03:17:39.150Z,101450.22
2022-09-23T03:20:15.342Z,101451.00
2022-09-23T03:22:54.875Z,101452.09
2022-09-23T03:25:25.228Z,101446.72
2022-09-23T03:27:57.507Z,101450.38
2022-09-23T03:30:25.165Z,101443.88
2022-09-23T03:32:52.773Z,101446.72
2022-09-23T03:35:20.916Z,101435.63
2022-09-23T03:37:56.532Z,101439.72
2022-09-23T03:40:41.940Z,101436.25
2022-09-23T03:43:09.725Z,101441.50
2022-09-23T03:45:36.495Z,101442.59
2022-09-23T03:48:03.470Z,101437.69
2022-09-23T03:50:30.181Z,101440.53
2022-09-23T03:52:56.696Z,101434.03
2022-09-23T03:55:23.302Z,101434.84
2022-09-23T03:57:49.774Z,101426.25
2022-09-23T04:00:16.353Z,101426.25
2022-09-23T04:02:44.114Z,101420.56
2022-09-23T04:05:12.324Z,101415.94
2022-09-23T04:07:39.401Z,101408.31
2022-09-23T04:10:06.796Z,101424.97
2022-09-23T04:12:33.325Z,101413.09
2022-09-23T04:15:00.147Z,101411.50
2022-09-23T04:17:26.821Z,101397.69
2022-09-23T04:19:53.306Z,101406.59
2022-09-23T04:22:20.063Z,101405.31
2022-09-23T04:24:46.573Z,101391.50
2022-09-23T04:27:13.081Z,101393.09
2022-09-23T04:29:39.616Z,101391.50
2022-09-23T04:32:06.250Z,101389.59
2022-09-23T04:34:32.800Z,101390.22
2022-09-23T04:36:59.279Z,101393.56
2022-09-23T04:39:25.780Z,101387.06
2022-09-23T04:41:52.290Z,101384.50
2022-09-23T04:44:19.712Z,101390.22
2022-09-23T04:46:48.252Z,101394.38
2022-09-23T04:49:15.891Z,101394.38
2022-09-23T04:51:43.445Z,101387.06
2022-09-23T04:54:11.874Z,101382.28
2022-09-23T04:56:39.703Z,101387.53
2022-09-23T04:59:06.980Z,101392.44
2022-09-23T05:01:35.084Z,101385.13
2022-09-23T05:04:05.170Z,101392.09
2022-09-23T05:06:34.525Z,101375.94
2022-09-23T05:09:02.019Z,101391.78
2022-09-23T05:11:31.455Z,101391.47
2022-09-23T05:13:58.733Z,101383.22
2022-09-23T05:16:26.874Z,101386.22
2022-09-23T05:18:54.206Z,101375.94
2022-09-23T05:21:23.309Z,101380.06
2022-09-23T05:23:54.342Z,101384.16
2022-09-23T05:26:25.727Z,101388.31
2022-09-23T05:28:53.871Z,101388.31
2022-09-23T05:31:22.703Z,101385.56
2022-09-23T05:33:59.351Z,101377.81
2022-09-23T05:36:27.517Z,101385.09
2022-09-23T05:38:56.532Z,101383.84
2022-09-23T05:41:25.242Z,101380.69
2022-09-23T05:43:53.043Z,101385.09
2022-09-23T05:46:23.204Z,101377.66
2022-09-23T05:48:50.717Z,101384.16
2022-09-23T05:51:22.336Z,101384.16
2022-09-23T05:53:52.520Z,101372.75
2022-09-23T05:56:23.479Z,101375.94
2022-09-23T05:58:51.297Z,101366.56
2022-09-23T06:01:26.236Z,101366.56
2022-09-23T06:03:57.194Z,101373.09
2022-09-23T06:06:30.645Z,101370.53
2022-09-23T06:09:01.355Z,101373.41
2022-09-23T06:11:33.101Z,101371.31
2022-09-23T06:14:01.145Z,101368.47
2022-09-23T06:16:29.724Z,101369.25
2022-09-23T06:18:56.804Z,101368.31
2022-09-23T06:21:24.017Z,101376.56
2022-09-23T06:23:53.611Z,101375.94
2022-09-23T06:26:22.558Z,101374.69
2022-09-23T06:28:50.259Z,101382.78
2022-09-23T06:31:17.402Z,101376.59
2022-09-23T06:33:45.364Z,101374.06
2022-09-23T06:36:18.150Z,101372.44
2022-09-23T06:38:51.071Z,101369.94
2022-09-23T06:41:17.629Z,101373.41
2022-09-23T06:43:44.247Z,101369.31
2022-09-23T06:46:15.908Z,101370.09
2022-09-23T06:48:46.406Z,101376.00
2022-09-23T06:51:20.021Z,101375.50
2022-09-23T06:53:48.167Z,101369.31
2022-09-23T06:56:16.616Z,101369.63
2022-09-23T06:58:43.412Z,101374.09
2022-09-23T07:01:16.829Z,101370.25
2022-09-23T07:03:45.204Z,101371.88
2022-09-23T07:06:12.185Z,101374.25
2022-09-23T07:08:40.364Z,101376.63
2022-09-23T07:11:07.272Z,101373.31
2022-09-23T07:13:34.586Z,101358.22
2022-09-23T07:16:02.187Z,101365.84
2022-09-23T07:18:37.374Z,101371.88
2022-09-23T07:21:16.183Z,101365.69
2022-09-23T07:23:43.387Z,101375.03
2022-09-23T07:26:10.316Z,101374.09
2022-09-23T07:28:37.181Z,101374.41
2022-09-23T07:31:09.822Z,101371.56
2022-09-23T07:33:37.983Z,101371.88
2022-09-23T07:36:10.449Z,101382.03
2022-09-23T07:38:40.501Z,101380.00
2022-09-23T07:41:11.394Z,101374.59
2022-09-23T07:43:39.700Z,101380.63
2022-09-23T07:46:13.056Z,101369.97
2022-09-23T07:48:40.024Z,101378.88
2022-09-23T07:51:11.735Z,101378.88
2022-09-23T07:53:39.091Z,101372.22
2022-09-23T07:56:06.328Z,101373.00
2022-09-23T07:58:34.502Z,101371.25
2022-09-23T08:01:11.212Z,101376.97
2022-09-23T08:03:38.964Z,101375.38
2022-09-23T08:06:07.700Z,101364.56
2022-09-23T08:08:34.320Z,101370.63
2022-09-23T08:11:05.269Z,101365.22
2022-09-23T08:13:32.852Z,101370.78
2022-09-23T08:15:59.503Z,101368.72
2022-09-23T08:18:26.330Z,101366.50
2022-09-23T08:20:53.180Z,101369.66
2022-09-23T08:23:20.983Z,101367.13
2022-09-23T08:25:47.892Z,101380.78
2022-09-23T08:28:19.152Z,101368.41
2022-09-23T08:30:48.929Z,101376.03
2022-09-23T08:33:19.664Z,101363.63
2022-09-23T08:35:49.305Z,101366.31
2022-09-23T08:38:15.799Z,101356.47
2022-09-23T08:40:45.164Z,101364.22
2022-09-23T08:43:22.068Z,101367.38
2022-09-23T08:45:51.112Z,101360.69
2022-09-23T08:48:28.036Z,101361.66
2022-09-23T08:50:58.719Z,101357.03
2022-09-23T08:53:28.988Z,101360.50
2022-09-23T08:55:59.590Z,101362.41
2022-09-23T08:58:46.288Z,101348.72
2022-09-23T09:01:38.806Z,101353.50
2022-09-23T09:04:44.492Z,101356.97
2022-09-23T09:07:35.788Z,101351.38
2022-09-23T09:10:06.484Z,101353.25
2022-09-23T09:12:47.866Z,101345.00
2022-09-23T09:15:16.855Z,101348.78
2022-09-23T09:18:04.851Z,101350.16
2022-09-23T09:20:56.957Z,101348.41
2022-09-23T09:23:32.160Z,101338.56
2022-09-23T09:26:01.650Z,101343.91
2022-09-23T09:28:51.947Z,101340.09
2022-09-23T09:31:25.945Z,101337.34
2022-09-23T09:34:06.234Z,101334.31
2022-09-23T09:36:48.627Z,101332.53
2022-09-23T09:39:16.299Z,101328.03
2022-09-23T09:41:47.766Z,101332.75
2022-09-23T09:44:40.590Z,101335.16
2022-09-23T09:47:28.627Z,101321.44
2022-09-23T09:50:09.203Z,101325.53
2022-09-23T09:52:49.817Z,101324.56
2022-09-23T09:55:37.324Z,101322.31
2022-09-23T09:58:05.763Z,101304.44
2022-09-23T10:00:42.931Z,101308.88
2022-09-23T10:03:12.531Z,101301.50
2022-09-23T10:05:45.188Z,101301.31
2022-09-23T10:08:34.996Z,101298.22
2022-09-23T10:11:15.141Z,101303.28
2022-09-23T10:14:02.731Z,101286.69
2022-09-23T10:16:34.321Z,101291.44
2022-09-23T10:19:12.324Z,101287.59
2022-09-23T10:21:39.773Z,101290.06
2022-09-23T10:24:08.187Z,101296.41
2022-09-23T10:26:51.559Z,101291.53
2022-09-23T10:29:33.843Z,101290.75
2022-09-23T10:32:22.224Z,101290.84
2022-09-23T10:34:53.377Z,101289.34
2022-09-23T10:37:38.007Z,101287.88
2022-09-23T10:40:48.316Z,101288.19
2022-09-23T10:43:55.043Z,101282.03
2022-09-23T10:46:39.790Z,101278.16
2022-09-23T10:49:49.887Z,101272.22
2022-09-23T10:52:43.707Z,101269.13
2022-09-23T10:55:51.321Z,101265.28
2022-09-23T10:58:51.318Z,101269.03
2022-09-23T11:01:41.115Z,101268.03
2022-09-23T11:04:26.172Z,101259.81
2022-09-23T11:07:27.933Z,101257.72
2022-09-23T11:10:28.896Z,101256.03
2022-09-23T11:13:24.486Z,101252.47
2022-09-23T11:15:51.531Z,101245.72
2022-09-23T11:18:49.993Z,101238.47
2022-09-23T11:21:28.156Z,101234.09
2022-09-23T11:24:24.864Z,101236.25
2022-09-23T11:27:23.029Z,101226.44
2022-09-23T11:30:02.088Z,101222.03
2022-09-23T11:32:43.822Z,101227.63
2022-09-23T11:35:25.853Z,101220.88
2022-09-23T11:38:07.570Z,101223.03
2022-09-23T11:40:43.948Z,101211.13
2022-09-23T11:43:23.443Z,101213.75
2022-09-23T11:45:58.492Z,101214.34
2022-09-23T11:48:41.053Z,101201.28
2022-09-23T11:51:24.724Z,101206.34
2022-09-23T11:54:19.834Z,101203.25
2022-09-23T11:56:52.157Z,101205.16
2022-09-23T12:00:00.041Z,101205.72
2022-09-23T12:02:59.011Z,101194.75
2022-09-23T12:05:37.452Z,101191.69
2022-09-23T12:08:12.869Z,101193.31
2022-09-23T12:10:57.987Z,101189.41
2022-09-23T12:13:48.619Z,101182.66
2022-09-23T12:16:42.975Z,101183.50
2022-09-23T12:19:33.139Z,101176.72
2022-09-23T12:22:18.138Z,101178.88
2022-09-23T12:25:07.047Z,101168.94
2022-09-23T12:27:45.316Z,101165.59
2022-09-23T12:30:23.066Z,101164.84
2022-09-23T12:32:50.086Z,101172.72
2022-09-23T12:35:26.276Z,101162.81
2022-09-23T12:37:53.253Z,101164.16
2022-09-23T12:40:43.632Z,101159.16
2022-09-23T12:43:33.225Z,101148.19
2022-09-23T12:46:32.136Z,101150.56
2022-09-23T12:49:01.332Z,101159.50
2022-09-23T12:51:35.803Z,101154.81
2022-09-23T12:54:05.231Z,101161.13
2022-09-23T12:56:37.804Z,101154.13
2022-09-23T12:59:11.246Z,101147.28
2022-09-23T13:01:38.849Z,101147.03
2022-09-23T13:04:24.462Z,101145.75
2022-09-23T13:07:08.819Z,101142.88
2022-09-23T13:09:42.918Z,101140.03
2022-09-23T13:12:24.748Z,101146.56
2022-09-23T13:14:54.899Z,101142.16
2022-09-23T13:17:31.263Z,101136.38
2022-09-23T13:20:01.827Z,101134.56
2022-09-23T13:23:05.989Z,101135.63
2022-09-23T13:25:38.935Z,101128.84
2022-09-23T13:28:19.384Z,101123.09
2022-09-23T13:30:52.244Z,101132.00
2022-09-23T13:33:27.510Z,101127.06
2022-09-23T13:36:01.525Z,101124.94
2022-09-23T13:38:32.103Z,101124.19
2022-09-23T13:41:07.211Z,101122.91
2022-09-23T13:43:42.541Z,101120.28
2022-09-23T13:46:21.535Z,101115.84
2022-09-23T13:48:51.687Z,101121.34
2022-09-23T13:51:36.477Z,101112.97
2022-09-23T13:54:05.097Z,101113.75
2022-09-23T13:56:33.266Z,101118.22
2022-09-23T13:59:24.482Z,101114.81
2022-09-23T14:02:01.906Z,101118.75
2022-09-23T14:04:28.474Z,101112.47
2022-09-23T14:06:55.806Z,101105.38
2022-09-23T14:09:27.412Z,101105.91
2022-09-23T14:11:56.408Z,101104.34
2022-09-23T14:14:23.499Z,101099.66
2022-09-23T14:16:52.027Z,101105.41
2022-09-23T14:19:23.507Z,101092.53
2022-09-23T14:21:52.997Z,101101.47
2022-09-23T14:24:20.784Z,101099.63
2022-09-23T14:26:58.557Z,101100.41
2022-09-23T14:29:28.610Z,101096.50
2022-09-23T14:32:11.011Z,101093.34
2022-09-23T14:35:03.264Z,101094.94
2022-09-23T14:37:57.494Z,101096.78
2022-09-23T14:40:48.998Z,101095.19
2022-09-23T14:43:27.711Z,101088.13
2022-09-23T14:45:56.433Z,101091.25
2022-09-23T14:48:26.542Z,101078.44
2022-09-23T14:50:58.353Z,101082.09
2022-09-23T14:53:40.293Z,101072.91
2022-09-23T14:56:06.756Z,101079.47
2022-09-23T14:58:42.494Z,101075.03
2022-09-23T15:01:27.685Z,101077.09
2022-09-23T15:03:56.155Z,101067.69
2022-09-23T15:06:23.465Z,101076.59
2022-09-23T15:08:51.709Z,101078.94
2022-09-23T15:11:18.309Z,101067.41
2022-09-23T15:13:50.764Z,101071.63
2022-09-23T15:16:26.306Z,101070.28
2022-09-23T15:18:58.617Z,101079.72
2022-09-23T15:21:40.851Z,101070.28
2022-09-23T15:24:44.924Z,101062.69
2022-09-23T15:27:35.194Z,101068.44
2022-09-23T15:30:15.695Z,101063.50
2022-09-23T15:32:43.406Z,101067.94
2022-09-23T15:35:19.159Z,101065.84
2022-09-23T15:37:48.388Z,101060.84
2022-09-23T15:40:20.714Z,101061.63
2022-09-23T15:42:51.429Z,101058.75
2022-09-23T15:45:22.018Z,101058.50
2022-09-23T15:47:50.500Z,101052.72
2022-09-23T15:50:17.448Z,101061.38
2022-09-23T15:52:45.607Z,101061.63
2022-09-23T15:55:23.676Z,101049.84
2022-09-23T15:57:50.613Z,101051.16
2022-09-23T16:00:17.478Z,101057.19
2022-09-23T16:02:46.995Z,101047.75
2022-09-23T16:05:22.336Z,101049.06
2022-09-23T16:07:52.254Z,101051.66
2022-09-23T16:10:21.599Z,101053.78
2022-09-23T16:12:48.972Z,101055.34
2022-09-23T16:15:19.549Z,101034.38
2022-09-23T16:17:46.370Z,101050.88
2022-09-23T16:20:17.689Z,101042.22
2022-09-23T16:22:54.612Z,101039.63
2022-09-23T16:25:28.081Z,101033.34
2022-09-23T16:27:56.445Z,101043.03
2022-09-23T16:30:27.602Z,101041.69
2022-09-23T16:32:54.365Z,101035.66
2022-09-23T16:35:26.858Z,101038.56
2022-09-23T16:37:53.686Z,101045.91
2022-09-23T16:40:22.493Z,101036.19
2022-09-23T16:42:52.069Z,101036.19
2022-09-23T16:45:22.297Z,101031.47
2022-09-23T16:47:51.100Z,101030.69
2022-09-23T16:50:19.837Z,101029.09
2022-09-23T16:52:46.913Z,101038.28
2022-09-23T16:55:14.799Z,101039.63
2022-09-23T16:57:41.876Z,101036.44
2022-09-23T17:00:32.149Z,101032.78
2022-09-23T17:03:17.115Z,101029.38
2022-09-23T17:05:46.602Z,101029.38
2022-09-23T17:08:15.175Z,101034.34
2022-09-23T17:10:43.980Z,101028.31
2022-09-23T17:13:11.984Z,101022.53
2022-09-23T17:15:39.727Z,101031.72
2022-09-23T17:18:07.598Z,101027.78
2022-09-23T17:20:35.712Z,101025.41
2022-09-23T17:23:05.932Z,101030.41
2022-09-23T17:25:33.953Z,101024.38
2022-09-23T17:28:00.850Z,101017.56
2022-09-23T17:30:28.743Z,101021.75
2022-09-23T17:32:55.250Z,101011.50
2022-09-23T17:35:21.794Z,101017.78
2022-09-23T17:37:48.348Z,101023.28
2022-09-23T17:40:15.006Z,101020.41
2022-09-23T17:42:41.738Z,101017.25
2022-09-23T17:45:10.303Z,101021.44
2022-09-23T17:47:41.311Z,101017.50
2022-09-23T17:50:08.635Z,101014.88
2022-09-23T17:52:35.217Z,101019.34
2022-09-23T17:55:01.860Z,101019.88
2022-09-23T17:57:28.390Z,101023.78
2022-09-23T17:59:56.071Z,101021.41
2022-09-23T18:02:22.828Z,101027.19
2022-09-23T18:04:49.695Z,101020.34
2022-09-23T18:07:16.637Z,101027.16
2022-09-23T18:09:43.179Z,101025.59
2022-09-23T18:12:09.750Z,101022.44
2022-09-23T18:14:36.545Z,101027.94
2022-09-23T18:17:03.088Z,101026.34
2022-09-23T18:19:29.702Z,101019.03
2022-09-23T18:21:57.257Z,101014.31
2022-09-23T18:24:33.224Z,101025.03
2022-09-23T18:27:01.051Z,101028.44
2022-09-23T18:29:28.089Z,101022.41
2022-09-23T18:31:54.749Z,101030.25
2022-09-23T18:34:21.966Z,101033.66
2022-09-23T18:36:48.586Z,101028.41
2022-09-23T18:39:15.472Z,101028.94
2022-09-23T18:41:42.319Z,101030.25
2022-09-23T18:44:09.730Z,101023.41
2022-09-23T18:46:36.535Z,101034.16
2022-09-23T18:49:22.826Z,101022.34
2022-09-23T18:51:55.571Z,101024.97
2022-09-23T18:54:27.687Z,101032.03
2022-09-23T18:56:54.870Z,101031.75
2022-09-23T18:59:25.172Z,101030.47
2022-09-23T19:01:54.962Z,101036.22
2022-09-23T19:04:23.694Z,101038.81
2022-09-23T19:06:50.783Z,101033.59
2022-09-23T19:09:18.325Z,101032.78
2022-09-23T19:11:45.159Z,101028.34
2022-09-23T19:14:12.981Z,101039.06
2022-09-23T19:16:40.919Z,101032.53
2022-09-23T19:19:08.214Z,101035.94
2022-09-23T19:21:35.752Z,101030.69
2022-09-23T19:24:05.521Z,101033.00
2022-09-23T19:26:38.407Z,101033.31
2022-09-23T19:29:08.123Z,101030.66
2022-09-23T19:31:40.280Z,101031.44
2022-09-23T19:34:37.712Z,101030.13
2022-09-23T19:37:04.484Z,101030.13
2022-09-23T19:39:31.858Z,101031.69
2022-09-23T19:41:59.038Z,101033.00
2022-09-23T19:44:26.529Z,101022.00
2022-09-23T19:46:56.674Z,101026.16
2022-09-23T19:49:24.791Z,101007.34
2022-09-23T19:51:51.875Z,101015.16
2022-09-23T19:54:20.576Z,101020.16
2022-09-23T19:56:50.573Z,101018.56
2022-09-23T19:59:19.124Z,101011.25
2022-09-23T20:01:46.632Z,101014.13
2022-09-23T20:04:13.361Z,101006.78
2022-09-23T20:06:40.993Z,101004.16
2022-09-23T20:09:07.727Z,101002.84
2022-09-23T20:11:34.535Z,101007.81
2022-09-23T20:14:03.278Z,101006.78
2022-09-23T20:16:32.980Z,100996.03
2022-09-23T20:19:00.926Z,100990.78
2022-09-23T20:21:29.248Z,100996.53
2022-09-23T20:23:56.668Z,100991.03
2022-09-23T20:26:41.486Z,100980.31
2022-09-23T20:29:08.952Z,100985.28
2022-09-23T20:31:36.023Z,100975.59
2022-09-23T20:34:05.748Z,100972.69
2022-09-23T20:36:34.026Z,100974.03
2022-09-23T20:39:02.577Z,100973.22
2022-09-23T20:41:31.263Z,100965.91
2022-09-23T20:44:01.366Z,100965.09
2022-09-23T20:46:29.413Z,100966.94
2022-09-23T20:48:56.938Z,100971.09
2022-09-23T20:51:25.034Z,100968.22
2022-09-23T20:53:53.164Z,100960.88
2022-09-23T20:56:23.409Z,100957.75
2022-09-23T20:58:52.452Z,100959.84
2022-09-23T21:01:19.615Z,100954.59
2022-09-23T21:03:51.335Z,100953.81
2022-09-23T21:06:19.432Z,100960.09
2022-09-23T21:08:46.492Z,100955.63
2022-09-23T21:11:15.631Z,100959.28
2022-09-23T21:13:51.826Z,100947.22
2022-09-23T21:16:22.506Z,100946.41
2022-09-23T21:18:50.441Z,100952.16
2022-09-23T21:21:19.538Z,100947.72
2022-09-23T21:23:47.652Z,100947.44
2022-09-23T21:26:19.395Z,100946.66
2022-09-23T21:28:50.906Z,100950.06
2022-09-23T21:31:24.059Z,100948.50
2022-09-23T21:33:56.643Z,100948.19
2022-09-23T21:36:24.828Z,100950.31
2022-09-23T21:38:52.441Z,100942.97
2022-09-23T21:41:19.927Z,100947.94
2022-09-23T21:43:46.582Z,100950.53
2022-09-23T21:46:15.483Z,100949.75
2022-09-23T21:48:42.694Z,100948.19
2022-09-23T21:51:14.124Z,100946.59
2022-09-23T21:53:42.118Z,100949.72
2022-09-23T21:56:19.593Z,100954.16
2022-09-23T21:58:47.106Z,100951.81
2022-09-23T22:01:25.958Z,100949.44
2022-09-23T22:03:54.877Z,100955.22
2022-09-23T22:06:24.285Z,100950.75
2022-09-23T22:08:53.329Z,100950.75
2022-09-23T22:11:41.637Z,100952.84
2022-09-23T22:14:12.563Z,100948.91
2022-09-23T22:16:39.787Z,100942.06
2022-09-23T22:19:07.125Z,100944.16
2022-09-23T22:21:39.057Z,100936.81
2022-09-23T22:24:08.362Z,100942.56
2022-09-23T22:26:38.340Z,100938.16
2022-09-23T22:29:25.269Z,100945.19
2022-09-23T22:32:10.369Z,100933.41
2022-09-23T22:34:52.786Z,100936.28
2022-09-23T22:37:34.108Z,100931.56
2022-09-23T22:40:01.997Z,100929.97
2022-09-23T22:42:29.201Z,100930.78
2022-09-23T22:44:55.866Z,100925.56
2022-09-23T22:47:22.640Z,100931.56
2022-09-23T22:49:49.223Z,100922.38
2022-09-23T22:52:21.048Z,100928.44
2022-09-23T22:54:47.877Z,100932.59
2022-09-23T22:57:15.398Z,100933.09
2022-09-23T22:59:44.030Z,100931.25
2022-09-23T23:02:10.945Z,100933.63
2022-09-23T23:04:37.531Z,100924.72
2022-09-23T23:07:04.615Z,100918.72
2022-09-23T23:09:31.198Z,100926.81
2022-09-23T23:11:57.836Z,100931.75
2022-09-23T23:14:25.755Z,100918.72
2022-09-23T23:16:52.805Z,100914.25
2022-09-23T23:19:19.465Z,100926.53
2022-09-23T23:21:46.332Z,100924.16
2022-09-23T23:24:17.828Z,100921.28
2022-09-23T23:26:45.184Z,100922.59
2022-09-23T23:29:13.336Z,100922.59
2022-09-23T23:31:40.571Z,100920.25
2022-09-23T23:34:11.926Z,100914.50
2022-09-23T23:36:38.496Z,100910.03
2022-09-23T23:39:05.119Z,100913.94
2022-09-23T23:41:31.678Z,100913.41
2022-09-23T23:44:04.053Z,100913.94
2022-09-23T23:46:32.257Z,100913.94
2022-09-23T23:48:59.761Z,100911.56
2022-09-23T23:51:27.308Z,100908.69
2022-09-23T23:53:55.834Z,100902.66
2022-09-23T23:56:24.960Z,100914.44
2022-09-23T23:58:56.143Z,100897.94
